createdAt,value
2023-04-27T00:01:42.032Z,10.08
2023-04-27T00:04:09.152Z,10.16
2023-04-27T00:06:36.004Z,10.12
2023-04-27T00:09:03.576Z,10.15
2023-04-27T00:11:30.453Z,9.97
2023-04-27T00:13:57.161Z,9.97
2023-04-27T00:16:25.646Z,9.74
2023-04-27T00:18:52.477Z,9.44
2023-04-27T00:21:19.621Z,9.60
2023-04-27T00:23:46.408Z,9.50
2023-04-27T00:26:13.226Z,9.37
2023-04-27T00:28:40.884Z,9.58
2023-04-27T00:31:07.691Z,9.64
2023-04-27T00:33:34.376Z,9.69
2023-04-27T00:36:01.628Z,9.72
2023-04-27T00:38:29.466Z,9.68
2023-04-27T00:41:06.853Z,9.28
2023-04-27T00:43:41.429Z,9.22
2023-04-27T00:46:08.726Z,9.22
2023-04-27T00:48:35.861Z,9.43
2023-04-27T00:51:02.513Z,9.63
2023-04-27T00:53:30.342Z,9.61
2023-04-27T00:55:58.473Z,9.67
2023-04-27T00:58:25.926Z,9.72
2023-04-27T01:00:52.867Z,9.68
2023-04-27T01:03:19.869Z,9.66
2023-04-27T01:05:46.737Z,9.56
2023-04-27T01:08:14.834Z,9.55
2023-04-27T01:10:42.115Z,9.55
2023-04-27T01:13:10.683Z,9.52
2023-04-27T01:15:38.350Z,9.42
2023-04-27T01:18:10.244Z,9.42
2023-04-27T01:20:38.721Z,9.45
2023-04-27T01:23:05.856Z,9.34
2023-04-27T01:25:32.601Z,9.45
2023-04-27T01:28:02.632Z,9.40
2023-04-27T01:30:30.412Z,9.45
2023-04-27T01:32:59.327Z,9.39
2023-04-27T01:35:28.228Z,9.41
2023-04-27T01:38:01.202Z,9.27
2023-04-27T01:40:28.120Z,9.40
2023-04-27T01:42:54.812Z,9.36
2023-04-27T01:45:21.765Z,9.44
2023-04-27T01:47:51.943Z,9.31
2023-04-27T01:50:20.517Z,9.20
2023-04-27T01:52:47.592Z,9.14
2023-04-27T01:55:15.980Z,9.26
2023-04-27T01:57:44.655Z,9.15
2023-04-27T02:00:12.736Z,9.19
2023-04-27T02:02:53.378Z,9.06
2023-04-27T02:05:20.551Z,9.01
2023-04-27T02:07:49.352Z,9.03
2023-04-27T02:10:16.221Z,8.87
2023-04-27T02:12:43.077Z,8.91
2023-04-27T02:15:10.378Z,9.02
2023-04-27T02:17:38.990Z,9.08
2023-04-27T02:20:07.083Z,9.06
2023-04-27T02:22:33.949Z,9.00
2023-04-27T02:25:00.984Z,9.02
2023-04-27T02:27:28.064Z,9.00
2023-04-27T02:29:55.255Z,9.02
2023-04-27T02:32:23.386Z,8.98
2023-04-27T02:34:52.690Z,9.12
2023-04-27T02:37:19.382Z,9.14
2023-04-27T02:39:47.230Z,9.06
2023-04-27T02:42:13.999Z,9.12
2023-04-27T02:44:42.854Z,9.15
2023-04-27T02:47:09.854Z,9.25
2023-04-27T02:49:38.054Z,9.21
2023-04-27T02:52:04.978Z,9.28
2023-04-27T02:54:31.890Z,9.22
2023-04-27T02:56:58.840Z,9.34
2023-04-27T02:59:25.530Z,9.34
2023-04-27T03:01:52.475Z,9.12
2023-04-27T03:04:19.483Z,9.16
2023-04-27T03:06:46.581Z,8.93
2023-04-27T03:09:13.992Z,9.08
2023-04-27T03:11:40.986Z,9.16
2023-04-27T03:14:07.969Z,9.15
2023-04-27T03:16:35.494Z,9.26
2023-04-27T03:19:02.211Z,9.02
2023-04-27T03:21:31.755Z,8.75
2023-04-27T03:23:58.568Z,8.56
2023-04-27T03:26:25.704Z,8.77
2023-04-27T03:28:52.560Z,8.92
2023-04-27T03:31:19.627Z,8.74
2023-04-27T03:33:46.331Z,8.91
2023-04-27T03:36:12.978Z,8.99
2023-04-27T03:38:41.643Z,8.79
2023-04-27T03:41:08.370Z,8.96
2023-04-27T03:43:36.182Z,8.81
2023-04-27T03:46:03.124Z,8.90
2023-04-27T03:48:29.798Z,8.82
2023-04-27T03:50:56.790Z,8.83
2023-04-27T03:53:23.547Z,8.91
2023-04-27T03:55:51.509Z,8.75
2023-04-27T03:58:18.396Z,8.77
2023-04-27T04:01:10.059Z,8.62
2023-04-27T04:03:37.592Z,8.60
2023-04-27T04:06:07.493Z,8.74
2023-04-27T04:08:34.627Z,8.55
2023-04-27T04:11:01.612Z,8.51
2023-04-27T04:13:29.721Z,8.41
2023-04-27T04:16:08.129Z,8.68
2023-04-27T04:18:36.069Z,8.66
2023-04-27T04:21:03.428Z,8.59
2023-04-27T04:23:30.332Z,8.67
2023-04-27T04:25:57.820Z,8.49
2023-04-27T04:28:29.250Z,8.40
2023-04-27T04:30:56.848Z,8.66
2023-04-27T04:33:24.267Z,8.31
2023-04-27T04:35:51.720Z,8.57
2023-04-27T04:38:18.928Z,8.76
2023-04-27T04:40:46.222Z,8.83
2023-04-27T04:43:13.333Z,8.72
2023-04-27T04:45:40.168Z,8.80
2023-04-27T04:48:07.066Z,8.74
2023-04-27T04:50:35.021Z,8.61
2023-04-27T04:53:02.395Z,8.79
2023-04-27T04:55:29.327Z,8.92
2023-04-27T04:57:56.213Z,8.87
2023-04-27T05:00:23.311Z,8.92
2023-04-27T05:02:50.301Z,8.85
2023-04-27T05:05:17.130Z,8.89
2023-04-27T05:07:43.994Z,8.76
2023-04-27T05:10:10.833Z,8.90
2023-04-27T05:12:37.654Z,8.90
2023-04-27T05:15:05.149Z,9.07
2023-04-27T05:17:34.131Z,8.98
2023-04-27T05:20:00.975Z,8.98
2023-04-27T05:22:27.645Z,8.90
2023-04-27T05:24:54.300Z,9.09
2023-04-27T05:27:21.032Z,9.08
2023-04-27T05:29:47.688Z,9.13
2023-04-27T05:32:14.395Z,9.27
2023-04-27T05:34:41.155Z,9.24
2023-04-27T05:37:07.830Z,8.97
2023-04-27T05:39:34.524Z,9.22
2023-04-27T05:42:02.857Z,9.14
2023-04-27T05:44:29.654Z,9.07
2023-04-27T05:46:56.396Z,9.15
2023-04-27T05:49:23.497Z,9.29
2023-04-27T05:51:50.394Z,9.30
2023-04-27T05:54:17.120Z,9.35
2023-04-27T05:56:43.792Z,9.26
2023-04-27T05:59:10.577Z,9.31
2023-04-27T06:01:37.284Z,9.18
2023-04-27T06:04:04.720Z,9.34
2023-04-27T06:06:32.933Z,9.32
2023-04-27T06:08:59.709Z,9.34
2023-04-27T06:11:26.708Z,9.42
2023-04-27T06:13:53.382Z,9.61
2023-04-27T06:16:21.262Z,9.58
2023-04-27T06:18:49.863Z,9.45
2023-04-27T06:21:16.605Z,9.62
2023-04-27T06:23:43.225Z,9.92
2023-04-27T06:26:09.914Z,9.83
2023-04-27T06:28:36.648Z,9.93
2023-04-27T06:31:03.509Z,9.98
2023-04-27T06:33:30.253Z,9.74
2023-04-27T06:35:56.915Z,10.01
2023-04-27T06:38:23.748Z,10.09
2023-04-27T06:40:51.849Z,10.17
2023-04-27T06:43:18.833Z,10.21
2023-04-27T06:45:46.063Z,10.00
2023-04-27T06:48:12.929Z,9.89
2023-04-27T06:50:39.896Z,10.03
2023-04-27T06:53:06.607Z,10.07
2023-04-27T06:55:33.241Z,10.00
2023-04-27T06:57:59.949Z,10.35
2023-04-27T07:00:27.226Z,10.23
2023-04-27T07:02:54.107Z,10.26
2023-04-27T07:05:21.129Z,10.44
2023-04-27T07:07:47.886Z,10.51
2023-04-27T07:10:14.625Z,10.64
2023-04-27T07:12:42.217Z,10.81
2023-04-27T07:15:09.693Z,10.95
2023-04-27T07:17:36.710Z,11.11
2023-04-27T07:20:05.942Z,11.11
2023-04-27T07:22:33.578Z,11.06
2023-04-27T07:25:00.687Z,11.02
2023-04-27T07:27:27.455Z,11.13
2023-04-27T07:29:54.761Z,11.22
2023-04-27T07:32:22.584Z,11.44
2023-04-27T07:34:54.025Z,11.65
2023-04-27T07:37:22.276Z,11.57
2023-04-27T07:39:50.551Z,11.35
2023-04-27T07:42:18.389Z,11.57
2023-04-27T07:44:45.151Z,11.92
2023-04-27T07:47:13.418Z,12.00
2023-04-27T07:49:40.306Z,12.34
2023-04-27T07:52:07.212Z,12.86
2023-04-27T07:54:34.502Z,12.78
2023-04-27T07:57:02.141Z,12.96
2023-04-27T07:59:29.713Z,12.89
2023-04-27T08:02:07.114Z,12.90
2023-04-27T08:04:43.350Z,13.52
2023-04-27T08:07:10.784Z,13.61
2023-04-27T08:09:37.857Z,13.50
2023-04-27T08:12:04.865Z,13.67
2023-04-27T08:14:34.423Z,13.55
2023-04-27T08:17:01.200Z,13.79
2023-04-27T08:19:28.227Z,13.80
2023-04-27T08:21:54.855Z,13.70
2023-04-27T08:24:21.493Z,13.72
2023-04-27T08:26:48.356Z,13.66
2023-04-27T08:29:24.187Z,13.99
2023-04-27T08:31:55.675Z,14.23
2023-04-27T08:34:23.243Z,14.40
2023-04-27T08:36:49.898Z,14.87
2023-04-27T08:39:18.030Z,15.42
2023-04-27T08:41:45.263Z,15.34
2023-04-27T08:44:12.048Z,15.16
2023-04-27T08:46:39.383Z,15.07
2023-04-27T08:49:07.569Z,15.05
2023-04-27T08:51:34.740Z,14.70
2023-04-27T08:54:01.990Z,14.37
2023-04-27T08:56:29.777Z,14.06
2023-04-27T08:58:58.092Z,14.30
2023-04-27T09:01:26.205Z,14.37
2023-04-27T09:04:01.538Z,14.26
2023-04-27T09:06:35.870Z,14.39
2023-04-27T09:09:03.853Z,14.32
2023-04-27T09:11:36.239Z,14.89
2023-04-27T09:14:15.271Z,14.81
2023-04-27T09:16:42.858Z,14.95
2023-04-27T09:19:10.186Z,15.17
2023-04-27T09:21:37.086Z,15.10
2023-04-27T09:24:12.467Z,14.83
2023-04-27T09:26:40.617Z,15.02
2023-04-27T09:29:07.953Z,15.22
2023-04-27T09:31:35.851Z,15.15
2023-04-27T09:34:03.928Z,15.24
2023-04-27T09:36:32.701Z,15.37
2023-04-27T09:39:04.369Z,15.29
2023-04-27T09:41:32.608Z,15.61
2023-04-27T09:44:00.795Z,15.17
2023-04-27T09:46:29.295Z,15.41
2023-04-27T09:48:56.500Z,15.10
2023-04-27T09:51:23.341Z,15.42
2023-04-27T09:53:54.083Z,15.06
2023-04-27T09:57:03.523Z,15.77
2023-04-27T09:59:46.795Z,15.34
2023-04-27T10:02:24.650Z,15.63
2023-04-27T10:05:26.687Z,15.21
2023-04-27T10:07:54.009Z,15.33
2023-04-27T10:10:20.801Z,15.67
2023-04-27T10:13:02.881Z,15.67
2023-04-27T10:15:30.069Z,15.58
2023-04-27T10:18:04.869Z,15.32
2023-04-27T10:20:33.561Z,15.22
2023-04-27T10:23:00.986Z,15.67
2023-04-27T10:25:47.401Z,15.68
2023-04-27T10:28:21.258Z,15.88
2023-04-27T10:30:51.810Z,15.85
2023-04-27T10:33:21.769Z,15.87
2023-04-27T10:35:58.761Z,16.28
2023-04-27T10:38:30.596Z,15.49
2023-04-27T10:41:02.453Z,15.37
2023-04-27T10:43:31.984Z,15.48
2023-04-27T10:46:10.194Z,16.10
2023-04-27T10:48:39.340Z,16.43
2023-04-27T10:51:06.436Z,15.92
2023-04-27T10:53:37.590Z,15.66
2023-04-27T10:56:06.970Z,15.66
2023-04-27T11:01:08.894Z,15.60
2023-04-27T11:03:36.384Z,15.57
2023-04-27T11:06:05.473Z,16.01
2023-04-27T11:08:36.690Z,15.66
2023-04-27T11:11:04.982Z,16.12
2023-04-27T11:13:33.524Z,15.83
2023-04-27T11:16:00.614Z,15.88
2023-04-27T11:18:31.523Z,15.99
2023-04-27T11:21:15.943Z,16.10
2023-04-27T11:23:43.348Z,16.36
2023-04-27T11:26:19.337Z,15.76
2023-04-27T11:29:09.936Z,16.13
2023-04-27T11:31:49.025Z,16.31
2023-04-27T11:34:24.083Z,16.16
2023-04-27T11:37:26.855Z,15.63
2023-04-27T11:39:54.914Z,16.03
2023-04-27T11:42:28.222Z,15.99
2023-04-27T11:45:00.198Z,16.18
2023-04-27T11:47:29.359Z,16.20
2023-04-27T11:50:01.134Z,16.31
2023-04-27T11:52:35.365Z,16.51
2023-04-27T11:55:06.976Z,16.48
2023-04-27T11:57:38.714Z,16.65
2023-04-27T12:00:14.250Z,16.58
2023-04-27T12:02:44.532Z,16.61
2023-04-27T12:05:13.112Z,16.60
2023-04-27T12:07:41.097Z,16.59
2023-04-27T12:10:08.928Z,16.41
2023-04-27T12:12:35.977Z,16.58
2023-04-27T12:15:03.190Z,16.78
2023-04-27T12:17:34.163Z,16.80
2023-04-27T12:20:00.991Z,16.74
2023-04-27T12:22:33.300Z,16.56
2023-04-27T12:25:00.028Z,16.77
2023-04-27T12:27:26.768Z,16.62
2023-04-27T12:29:59.553Z,16.85
2023-04-27T12:32:27.584Z,16.68
2023-04-27T12:34:54.222Z,16.61
2023-04-27T12:37:21.961Z,16.92
2023-04-27T12:39:48.605Z,16.76
2023-04-27T12:42:15.442Z,16.72
2023-04-27T12:44:42.129Z,16.86
2023-04-27T12:47:09.154Z,16.97
2023-04-27T12:49:36.421Z,16.94
2023-04-27T12:52:03.197Z,17.06
2023-04-27T12:54:29.885Z,17.03
2023-04-27T12:56:57.051Z,16.87
2023-04-27T12:59:23.744Z,16.94
2023-04-27T13:01:50.520Z,17.14
2023-04-27T13:04:20.991Z,17.28
2023-04-27T13:06:48.647Z,17.10
2023-04-27T13:09:16.570Z,17.38
2023-04-27T13:11:43.435Z,17.37
2023-04-27T13:14:12.670Z,17.15
2023-04-27T13:16:40.386Z,17.03
2023-04-27T13:19:07.133Z,17.15
2023-04-27T13:21:33.917Z,17.38
2023-04-27T13:24:00.865Z,17.28
2023-04-27T13:26:27.707Z,17.60
2023-04-27T13:28:54.458Z,17.38
2023-04-27T13:31:21.409Z,17.68
2023-04-27T13:33:48.138Z,17.74
2023-04-27T13:36:14.822Z,17.30
2023-04-27T13:38:41.653Z,17.36
2023-04-27T13:41:08.774Z,17.45
2023-04-27T13:43:35.696Z,17.39
2023-04-27T13:46:03.056Z,17.44
2023-04-27T13:48:30.790Z,17.07
2023-04-27T13:50:58.002Z,17.26
2023-04-27T13:53:27.903Z,17.45
2023-04-27T13:55:56.003Z,17.66
2023-04-27T13:58:25.789Z,18.03
2023-04-27T14:00:53.943Z,17.89
2023-04-27T14:03:21.412Z,18.17
2023-04-27T14:05:48.973Z,18.22
2023-04-27T14:08:15.861Z,18.30
2023-04-27T14:10:42.954Z,18.28
2023-04-27T14:13:09.786Z,17.94
2023-04-27T14:15:37.340Z,17.90
2023-04-27T14:18:08.490Z,18.25
2023-04-27T14:20:36.405Z,18.09
2023-04-27T14:23:04.961Z,18.60
2023-04-27T14:25:35.287Z,18.73
2023-04-27T14:28:04.326Z,18.90
2023-04-27T14:30:32.209Z,19.45
2023-04-27T14:32:59.113Z,19.35
2023-04-27T14:35:26.125Z,19.58
2023-04-27T14:37:53.396Z,19.21
2023-04-27T14:40:20.329Z,19.48
2023-04-27T14:42:47.100Z,19.99
2023-04-27T14:45:13.885Z,19.81
2023-04-27T14:47:40.711Z,20.26
2023-04-27T14:50:08.250Z,22.76
2023-04-27T14:52:34.899Z,27.97
2023-04-27T14:55:02.193Z,27.96
2023-04-27T14:57:30.140Z,28.24
2023-04-27T15:00:09.715Z,26.95
2023-04-27T15:02:39.578Z,25.69
2023-04-27T15:05:07.173Z,23.38
2023-04-27T15:07:33.896Z,21.88
2023-04-27T15:10:00.669Z,23.35
2023-04-27T15:12:27.475Z,23.19
2023-04-27T15:14:54.151Z,23.28
2023-04-27T15:17:21.037Z,24.23
2023-04-27T15:19:48.078Z,22.98
2023-04-27T15:22:15.071Z,22.32
2023-04-27T15:24:41.795Z,21.19
2023-04-27T15:27:09.858Z,21.32
2023-04-27T15:29:37.293Z,20.18
2023-04-27T15:32:04.221Z,19.96
2023-04-27T15:34:31.164Z,18.88
2023-04-27T15:36:57.873Z,18.90
2023-04-27T15:39:24.784Z,19.38
2023-04-27T15:41:51.490Z,19.36
2023-04-27T15:44:18.195Z,19.22
2023-04-27T15:46:44.913Z,19.17
2023-04-27T15:49:13.036Z,19.01
2023-04-27T15:51:39.969Z,18.89
2023-04-27T15:54:06.628Z,18.48
2023-04-27T15:56:33.299Z,18.38
2023-04-27T15:58:59.984Z,18.08
2023-04-27T16:01:26.887Z,18.15
2023-04-27T16:03:53.820Z,17.93
2023-04-27T16:06:20.781Z,18.12
2023-04-27T16:08:47.620Z,18.24
2023-04-27T16:11:14.352Z,17.91
2023-04-27T16:13:41.027Z,17.97
2023-04-27T16:16:08.568Z,18.07
2023-04-27T16:18:35.910Z,17.92
2023-04-27T16:21:03.906Z,18.05
2023-04-27T16:23:30.892Z,18.01
2023-04-27T16:25:57.677Z,17.87
2023-04-27T16:28:24.384Z,17.62
2023-04-27T16:30:51.583Z,17.79
2023-04-27T16:33:19.242Z,18.03
2023-04-27T16:35:46.000Z,18.02
2023-04-27T16:38:13.150Z,18.04
2023-04-27T16:40:39.879Z,17.84
2023-04-27T16:43:06.754Z,17.80
2023-04-27T16:45:33.860Z,17.83
2023-04-27T16:48:01.804Z,17.57
2023-04-27T16:50:31.405Z,17.60
2023-04-27T16:53:09.019Z,17.34
2023-04-27T16:55:36.329Z,17.44
2023-04-27T16:58:03.088Z,17.47
2023-04-27T17:00:31.183Z,17.59
2023-04-27T17:02:57.920Z,17.52
2023-04-27T17:05:25.084Z,17.48
2023-04-27T17:07:51.805Z,17.58
2023-04-27T17:10:19.515Z,17.63
2023-04-27T17:12:47.309Z,17.67
2023-04-27T17:15:14.300Z,17.58
2023-04-27T17:17:41.287Z,17.51
2023-04-27T17:20:09.522Z,17.44
2023-04-27T17:22:36.539Z,17.16
2023-04-27T17:25:04.049Z,17.14
2023-04-27T17:27:31.652Z,17.24
2023-04-27T17:29:58.459Z,17.18
2023-04-27T17:32:25.256Z,17.23
2023-04-27T17:34:52.472Z,17.20
2023-04-27T17:37:19.378Z,17.10
2023-04-27T17:39:46.469Z,17.06
2023-04-27T17:42:13.260Z,17.05
2023-04-27T17:44:41.472Z,17.07
2023-04-27T17:47:08.368Z,17.24
2023-04-27T17:49:35.470Z,17.01
2023-04-27T17:52:02.630Z,16.90
2023-04-27T17:54:30.170Z,16.87
2023-04-27T17:56:57.468Z,16.84
2023-04-27T17:59:24.905Z,16.89
2023-04-27T18:01:52.316Z,16.92
2023-04-27T18:04:19.139Z,16.84
2023-04-27T18:06:46.249Z,16.89
2023-04-27T18:09:13.753Z,16.80
2023-04-27T18:11:41.182Z,16.81
2023-04-27T18:14:07.888Z,16.85
2023-04-27T18:16:34.622Z,16.83
2023-04-27T18:19:01.313Z,16.77
2023-04-27T18:21:28.942Z,16.62
2023-04-27T18:23:56.911Z,16.80
2023-04-27T18:26:23.637Z,16.77
2023-04-27T18:28:50.740Z,16.63
2023-04-27T18:31:18.331Z,16.54
2023-04-27T18:33:45.602Z,16.52
2023-04-27T18:36:12.832Z,16.54
2023-04-27T18:38:39.551Z,16.54
2023-04-27T18:41:06.982Z,16.44
2023-04-27T18:43:36.868Z,16.42
2023-04-27T18:46:04.131Z,16.34
2023-04-27T18:48:31.176Z,16.35
2023-04-27T18:50:58.143Z,16.42
2023-04-27T18:53:24.987Z,16.35
2023-04-27T18:55:51.678Z,16.34
2023-04-27T18:58:18.391Z,16.32
2023-04-27T19:00:45.374Z,16.34
2023-04-27T19:03:12.343Z,16.35
2023-04-27T19:05:40.845Z,16.31
2023-04-27T19:08:08.024Z,16.41
2023-04-27T19:10:34.920Z,16.36
2023-04-27T19:13:01.767Z,16.28
2023-04-27T19:15:28.653Z,16.30
2023-04-27T19:18:02.674Z,16.41
2023-04-27T19:20:36.548Z,16.22
2023-04-27T19:23:05.011Z,16.31
2023-04-27T19:25:31.718Z,16.25
2023-04-27T19:27:58.592Z,16.15
2023-04-27T19:30:25.369Z,16.07
2023-04-27T19:32:52.152Z,15.94
2023-04-27T19:35:20.230Z,15.97
2023-04-27T19:37:46.967Z,15.91
2023-04-27T19:40:13.711Z,15.80
2023-04-27T19:42:40.549Z,15.77
2023-04-27T19:45:07.712Z,15.86
2023-04-27T19:47:34.533Z,15.86
2023-04-27T19:50:01.471Z,15.95
2023-04-27T19:52:31.747Z,15.69
2023-04-27T19:54:59.828Z,15.57
2023-04-27T19:57:26.731Z,15.62
2023-04-27T19:59:53.470Z,15.53
2023-04-27T20:02:20.368Z,15.53
2023-04-27T20:04:47.377Z,15.62
2023-04-27T20:07:14.681Z,15.53
2023-04-27T20:09:41.395Z,15.53
2023-04-27T20:12:11.376Z,15.43
2023-04-27T20:14:46.934Z,15.30
2023-04-27T20:17:13.904Z,15.28
2023-04-27T20:19:40.679Z,15.26
2023-04-27T20:22:07.357Z,15.23
2023-04-27T20:24:35.406Z,15.23
2023-04-27T20:27:05.064Z,15.18
2023-04-27T20:29:32.747Z,15.21
2023-04-27T20:31:59.582Z,15.41
2023-04-27T20:34:26.287Z,15.29
2023-04-27T20:36:53.067Z,15.29
2023-04-27T20:39:20.265Z,15.15
2023-04-27T20:41:46.918Z,15.19
2023-04-27T20:44:13.794Z,15.16
2023-04-27T20:46:40.830Z,15.08
2023-04-27T20:49:07.698Z,15.20
2023-04-27T20:51:34.499Z,15.16
2023-04-27T20:54:01.603Z,15.06
2023-04-27T20:56:30.654Z,15.04
2023-04-27T20:58:57.972Z,14.88
2023-04-27T21:01:26.038Z,14.90
2023-04-27T21:03:52.986Z,14.92
2023-04-27T21:06:19.711Z,14.90
2023-04-27T21:08:46.367Z,14.78
2023-04-27T21:11:13.553Z,14.77
2023-04-27T21:13:41.265Z,14.78
2023-04-27T21:16:08.012Z,14.83
2023-04-27T21:18:34.980Z,14.99
2023-04-27T21:21:02.011Z,14.87
2023-04-27T21:23:28.965Z,14.94
2023-04-27T21:25:56.019Z,14.90
2023-04-27T21:28:22.679Z,14.96
2023-04-27T21:30:49.415Z,14.93
2023-04-27T21:33:16.180Z,14.86
2023-04-27T21:35:42.857Z,14.85
2023-04-27T21:38:09.594Z,14.85
2023-04-27T21:40:36.280Z,14.89
2023-04-27T21:43:03.138Z,14.74
2023-04-27T21:45:29.899Z,14.71
2023-04-27T21:47:56.532Z,14.77
2023-04-27T21:50:23.582Z,14.81
2023-04-27T21:52:50.306Z,14.70
2023-04-27T21:55:17.217Z,14.69
2023-04-27T21:57:44.972Z,14.74
2023-04-27T22:00:15.351Z,14.80
2023-04-27T22:02:45.702Z,14.88
2023-04-27T22:05:12.472Z,14.89
2023-04-27T22:07:39.130Z,14.89
2023-04-27T22:10:06.485Z,14.88
2023-04-27T22:12:33.563Z,14.85
2023-04-27T22:15:00.818Z,14.93
2023-04-27T22:17:27.852Z,14.97
2023-04-27T22:19:54.801Z,14.95
2023-04-27T22:22:21.500Z,14.84
2023-04-27T22:24:48.629Z,14.89
2023-04-27T22:27:15.847Z,14.81
2023-04-27T22:29:42.604Z,14.78
2023-04-27T22:32:09.958Z,14.81
2023-04-27T22:34:37.170Z,14.71
2023-04-27T22:37:04.001Z,14.80
2023-04-27T22:39:31.552Z,14.77
2023-04-27T22:41:58.137Z,14.72
2023-04-27T22:44:24.776Z,14.72
2023-04-27T22:46:52.068Z,14.82
2023-04-27T22:49:18.733Z,14.72
2023-04-27T22:51:46.975Z,14.76
2023-04-27T22:54:13.918Z,14.80
2023-04-27T22:56:41.081Z,14.75
2023-04-27T22:59:07.761Z,14.82
2023-04-27T23:01:34.483Z,14.74
2023-04-27T23:04:01.290Z,14.72
2023-04-27T23:06:28.472Z,14.56
2023-04-27T23:08:56.555Z,14.48
2023-04-27T23:11:23.825Z,14.64
2023-04-27T23:13:50.639Z,14.65
2023-04-27T23:16:17.596Z,14.80
2023-04-27T23:18:44.387Z,14.88
2023-04-27T23:21:11.693Z,14.81
2023-04-27T23:23:38.512Z,14.86
2023-04-27T23:26:14.381Z,14.74
2023-04-27T23:28:41.239Z,14.74
2023-04-27T23:31:08.074Z,14.80
2023-04-27T23:33:35.004Z,14.68
2023-04-27T23:36:02.027Z,14.71
2023-04-27T23:38:28.852Z,14.79
2023-04-27T23:40:55.519Z,14.81
2023-04-27T23:43:22.396Z,14.73
2023-04-27T23:45:52.642Z,14.66
2023-04-27T23:48:19.745Z,14.64
2023-04-27T23:50:46.398Z,14.49
2023-04-27T23:53:13.165Z,14.51
2023-04-27T23:55:39.831Z,14.57
2023-04-27T23:58:06.463Z,14.49
